»·PEaware :: DHV23 KSEA-KLAX

DHV23 :: KSEA-KLAX

FLIGHT INFORMATION

Flight Status: Arrived
Operator: Unknown
More flights by this operator :: More flights under this callsign
Pilot: Oliver L. (19934)
Aircraft: Unknown
(B748)
More flights by this aircraft type
Origin: KSEA Seattle-Tacoma Intl
United States
Destination: KLAX Los Angeles Intl
United States
More flights between these airports :: More routes between these airports
Route: + SUMMA1 LKV FRA REBRG IRNMN2
File this flight plan on PilotEdge
Remarks:
Altitude:
(Current/Filed)
35,000ft
Speed:
(Current/Filed)
420kts
Departed: 03-Dec-18 08:32 PM
Arrived: 03-Dec-18 10:38 PM
Distance/Time
Traveled:
830nm/2:06
Distance/Time
To Go:
Arrived

Flight Plot

Page will automatically refresh every two minutes.

Flight plan parsing failed; only flown route is shown


Map Options




Map Legend


Flown Route
Filed Route
Departure Airport
Arrival Airport
Navaid (VOR, NDB)
Fix

Horizontal Profiles

Position Reports

Time Latitude Longitude Heading Altitude Ground
Speed
03-Dec-18 20:04 47.462411 -122.300055 359 448ft 0kts
03-Dec-18 20:05 47.462411 -122.300055 359 448ft 0kts
03-Dec-18 20:06 47.462411 -122.300055 359 448ft 0kts
03-Dec-18 20:07 47.462411 -122.300055 359 448ft 0kts
03-Dec-18 20:08 47.462411 -122.300055 359 448ft 0kts
03-Dec-18 20:09 47.462411 -122.300055 359 448ft 0kts
03-Dec-18 20:10 47.462411 -122.300055 359 448ft 0kts
03-Dec-18 20:11 47.462411 -122.300055 359 448ft 0kts
03-Dec-18 20:12 47.462411 -122.300055 359 448ft 0kts
03-Dec-18 20:13 47.462411 -122.300055 359 448ft 0kts
03-Dec-18 20:14 47.462411 -122.300055 359 448ft 0kts
03-Dec-18 20:15 47.462411 -122.300055 359 448ft 0kts
03-Dec-18 20:16 47.462411 -122.300055 359 448ft 0kts
03-Dec-18 20:17 47.462411 -122.300055 359 448ft 0kts
03-Dec-18 20:18 47.461963 -122.299821 317 448ft 2kts
03-Dec-18 20:19 47.461744 -122.299102 270 448ft 0kts
03-Dec-18 20:20 47.461744 -122.299103 270 448ft 0kts
03-Dec-18 20:21 47.461744 -122.299103 270 448ft 0kts
03-Dec-18 20:22 47.461748 -122.299426 270 448ft 3kts
03-Dec-18 20:23 47.461769 -122.303264 271 448ft 5kts
03-Dec-18 20:24 47.461821 -122.304298 274 448ft 10kts
03-Dec-18 20:25 47.457496 -122.306173 180 448ft 29kts
03-Dec-18 20:26 47.449040 -122.306260 180 448ft 32kts
03-Dec-18 20:27 47.439633 -122.306367 180 448ft 34kts
03-Dec-18 20:28 47.431879 -122.306171 236 448ft 0kts
03-Dec-18 20:29 47.431879 -122.306171 236 448ft 0kts
03-Dec-18 20:30 47.432220 -122.307991 352 448ft 19kts
03-Dec-18 20:31 47.471553 -122.307568 1 1780ft 209kts
03-Dec-18 20:32 47.528543 -122.307581 0 5663ft 211kts
03-Dec-18 20:33 47.582471 -122.306647 28 8067ft 196kts
03-Dec-18 20:34 47.588414 -122.222872 102 9111ft 262kts
03-Dec-18 20:35 47.580183 -122.100471 87 10133ft 336kts
03-Dec-18 20:36 47.547077 -121.964552 135 11737ft 389kts
03-Dec-18 20:37 47.441465 -121.926061 180 13803ft 412kts
03-Dec-18 20:38 47.325928 -121.937668 191 15792ft 426kts
03-Dec-18 20:39 47.229842 -122.038556 198 17834ft 437kts
03-Dec-18 20:40 47.112559 -122.010776 160 19925ft 442kts
03-Dec-18 20:41 46.991460 -121.979365 176 21922ft 454kts
03-Dec-18 20:42 46.869548 -121.982373 184 23911ft 445kts
03-Dec-18 20:43 46.746415 -121.986801 183 25890ft 448kts
03-Dec-18 20:44 46.622517 -121.986901 179 27860ft 447kts
03-Dec-18 20:45 46.500417 -121.948755 168 29544ft 454kts
03-Dec-18 20:46 46.379276 -121.897613 169 30911ft 457kts
03-Dec-18 20:47 46.255828 -121.849198 169 31910ft 466kts
03-Dec-18 20:48 46.129866 -121.801463 169 32911ft 472kts
03-Dec-18 20:49 46.002842 -121.753459 169 33917ft 475kts
03-Dec-18 20:50 45.879545 -121.706957 169 34894ft 474kts
03-Dec-18 20:51 45.751514 -121.659327 169 35456ft 483kts
03-Dec-18 20:52 45.618508 -121.610056 169 35461ft 509kts
03-Dec-18 20:54 45.478024 -121.557933 169 35461ft 538kts
03-Dec-18 20:55 45.335698 -121.504986 169 35454ft 523kts
03-Dec-18 20:56 45.193716 -121.452861 169 35455ft 530kts
03-Dec-18 20:57 45.050736 -121.400634 171 35461ft 538kts
03-Dec-18 20:58 44.905999 -121.348214 174 35436ft 549kts
03-Dec-18 20:59 44.761489 -121.294733 174 35299ft 546kts
03-Dec-18 21:00 44.614987 -121.241341 175 35295ft 547kts
03-Dec-18 21:01 44.468644 -121.189079 175 35298ft 545kts
03-Dec-18 21:02 44.321494 -121.136800 174 35299ft 548kts
03-Dec-18 21:03 44.174624 -121.084775 174 35311ft 549kts
03-Dec-18 21:04 44.026696 -121.032688 174 35316ft 550kts
03-Dec-18 21:05 43.881485 -120.981780 174 35313ft 551kts
03-Dec-18 21:06 43.733348 -120.930319 174 35307ft 552kts
03-Dec-18 21:07 43.584959 -120.878833 174 35309ft 552kts
03-Dec-18 21:08 43.436380 -120.827473 174 35312ft 551kts
03-Dec-18 21:09 43.288327 -120.776680 174 35317ft 551kts
03-Dec-18 21:10 43.139719 -120.725902 174 35302ft 552kts
03-Dec-18 21:11 42.991477 -120.675381 174 35255ft 549kts
03-Dec-18 21:12 42.847499 -120.626575 175 35247ft 541kts
03-Dec-18 21:13 42.701804 -120.577760 175 35260ft 543kts
03-Dec-18 21:13 42.580278 -120.536890 175 35255ft 541kts
03-Dec-18 21:15 42.409436 -120.487720 182 35258ft 532kts
03-Dec-18 21:15 42.287663 -120.468187 183 35264ft 530kts
03-Dec-18 21:17 42.117695 -120.440232 182 35256ft 532kts
03-Dec-18 21:17 41.995515 -120.418051 182 35262ft 531kts
03-Dec-18 21:18 41.851379 -120.391785 182 35247ft 533kts
03-Dec-18 21:20 41.680627 -120.361158 182 35241ft 532kts
03-Dec-18 21:20 41.559751 -120.339338 182 35223ft 532kts
03-Dec-18 21:21 41.413989 -120.312153 182 35223ft 532kts
03-Dec-18 21:22 41.267584 -120.286014 183 35225ft 530kts
03-Dec-18 21:23 41.121624 -120.260564 183 35227ft 531kts
03-Dec-18 21:24 40.979025 -120.235308 182 35225ft 510kts
03-Dec-18 21:25 40.844139 -120.211906 183 35242ft 510kts
03-Dec-18 21:26 40.704003 -120.187744 182 35256ft 509kts
03-Dec-18 21:27 40.564313 -120.163636 183 35253ft 509kts
03-Dec-18 21:28 40.424198 -120.139532 182 35251ft 509kts
03-Dec-18 21:29 40.284252 -120.115603 182 35256ft 509kts
03-Dec-18 21:30 40.144508 -120.091751 183 35246ft 510kts
03-Dec-18 21:31 40.004125 -120.067935 183 35238ft 509kts
03-Dec-18 21:32 39.868281 -120.044969 182 35236ft 509kts
03-Dec-18 21:33 39.728439 -120.021342 182 35240ft 510kts
03-Dec-18 21:34 39.588739 -119.997852 182 35239ft 510kts
03-Dec-18 21:35 39.448572 -119.974478 182 35221ft 509kts
03-Dec-18 21:36 39.308418 -119.951140 182 35209ft 510kts
03-Dec-18 21:37 39.167956 -119.927895 182 35208ft 510kts
03-Dec-18 21:38 39.028075 -119.904809 183 35202ft 510kts
03-Dec-18 21:39 38.893444 -119.882524 182 35206ft 498kts
03-Dec-18 21:40 38.757405 -119.860266 182 35213ft 498kts
03-Dec-18 21:41 38.620624 -119.837996 182 35200ft 497kts
03-Dec-18 21:42 38.483526 -119.815718 182 35179ft 498kts
03-Dec-18 21:43 38.346556 -119.793489 182 35179ft 497kts
03-Dec-18 21:44 38.209776 -119.771467 182 35178ft 497kts
03-Dec-18 21:45 38.072795 -119.749431 182 35180ft 497kts
03-Dec-18 21:46 37.936504 -119.727649 182 35190ft 497kts
03-Dec-18 21:47 37.802400 -119.706236 182 35197ft 498kts
03-Dec-18 21:48 37.665633 -119.684445 182 35200ft 499kts
03-Dec-18 21:49 37.528634 -119.662707 182 35198ft 498kts
03-Dec-18 21:50 37.391722 -119.641111 182 35189ft 498kts
03-Dec-18 21:51 37.254904 -119.619531 182 35190ft 499kts
03-Dec-18 21:52 37.117876 -119.597878 182 35190ft 496kts
03-Dec-18 21:53 36.983337 -119.594211 190 35187ft 478kts
03-Dec-18 21:54 36.853673 -119.600088 190 35192ft 478kts
03-Dec-18 21:55 36.720934 -119.603007 189 35190ft 479kts
03-Dec-18 21:56 36.587975 -119.604973 189 35193ft 479kts
03-Dec-18 21:57 36.455135 -119.607218 189 35207ft 479kts
03-Dec-18 21:58 36.322093 -119.609525 189 35206ft 479kts
03-Dec-18 21:59 36.189496 -119.611790 189 35206ft 479kts
03-Dec-18 22:00 36.056652 -119.613933 189 35206ft 479kts
03-Dec-18 22:01 35.927092 -119.629433 202 35205ft 462kts
03-Dec-18 22:02 35.808831 -119.678002 206 33894ft 448kts
03-Dec-18 22:03 35.694015 -119.723017 203 32430ft 424kts
03-Dec-18 22:04 35.579897 -119.755706 197 30962ft 423kts
03-Dec-18 22:05 35.466051 -119.781774 197 29478ft 411kts
03-Dec-18 22:06 35.355271 -119.808293 197 27983ft 402kts
03-Dec-18 22:07 35.245297 -119.787445 157 26524ft 430kts
03-Dec-18 22:08 35.150398 -119.699622 147 26167ft 437kts
03-Dec-18 22:09 35.056197 -119.606707 149 26171ft 434kts
03-Dec-18 22:10 34.960156 -119.517909 150 26172ft 438kts
03-Dec-18 22:11 34.865540 -119.431654 150 24997ft 429kts
03-Dec-18 22:12 34.772493 -119.349142 151 23211ft 403kts
03-Dec-18 22:13 34.694927 -119.279992 150 21223ft 395kts
03-Dec-18 22:14 34.609563 -119.205738 151 19167ft 353kts
03-Dec-18 22:15 34.526315 -119.133934 149 17867ft 373kts
03-Dec-18 22:16 34.443966 -119.060562 148 15899ft 358kts
03-Dec-18 22:17 34.370905 -118.996975 149 14009ft 306kts
03-Dec-18 22:18 34.300320 -118.934698 146 12696ft 315kts
03-Dec-18 22:19 34.233281 -118.873219 145 11996ft 291kts
03-Dec-18 22:20 34.167609 -118.812618 143 11999ft 300kts
03-Dec-18 22:21 34.104632 -118.745129 139 10742ft 303kts
03-Dec-18 22:22 34.044494 -118.677756 126 9032ft 292kts
03-Dec-18 22:23 34.022111 -118.588625 94 7997ft 270kts
03-Dec-18 22:24 34.014599 -118.500521 94 7259ft 257kts
03-Dec-18 22:25 34.013603 -118.419760 86 6571ft 235kts
03-Dec-18 22:26 34.014896 -118.345167 87 5621ft 229kts
03-Dec-18 22:27 34.016122 -118.270035 87 4476ft 216kts
03-Dec-18 22:28 34.017288 -118.200739 88 3593ft 201kts
03-Dec-18 22:29 34.018506 -118.130991 88 3593ft 210kts
03-Dec-18 22:30 34.012315 -118.063054 143 3585ft 209kts
03-Dec-18 22:31 33.966118 -118.089285 232 3575ft 209kts
03-Dec-18 22:32 33.959018 -118.150570 267 3326ft 181kts
03-Dec-18 22:33 33.953848 -118.210316 263 3396ft 173kts
03-Dec-18 22:34 33.948977 -118.266191 263 2045ft 168kts
03-Dec-18 22:35 33.943559 -118.320470 263 1263ft 164kts
03-Dec-18 22:36 33.938363 -118.372021 263 327ft 145kts
03-Dec-18 22:37 33.935100 -118.401498 242 140ft 11kts
03-Dec-18 22:38 33.933603 -118.402206 176 140ft 2kts
03-Dec-18 22:39 33.933311 -118.402170 172 140ft 0kts
03-Dec-18 22:40 33.933311 -118.402170 172 140ft 0kts

Navigation Log

Ident Type
Flight plan parsing failed, navigation log unavailable